createdAt,value
2018-07-05T00:00:34.525Z,26.87
2018-07-05T00:01:34.509Z,26.83
2018-07-05T00:02:34.500Z,26.78
2018-07-05T00:03:34.600Z,26.83
2018-07-05T00:04:34.662Z,26.75
2018-07-05T00:05:34.570Z,26.72
2018-07-05T00:06:34.562Z,26.90
2018-07-05T00:07:34.547Z,26.81
2018-07-05T00:08:34.556Z,26.81
2018-07-05T00:09:34.446Z,26.79
2018-07-05T00:10:34.431Z,26.79
2018-07-05T00:11:34.510Z,26.81
2018-07-05T00:12:34.405Z,26.84
2018-07-05T00:13:34.395Z,26.84
2018-07-05T00:14:34.385Z,26.79
2018-07-05T00:15:34.494Z,26.84
2018-07-05T00:16:34.356Z,26.76
2018-07-05T00:17:34.361Z,26.78
2018-07-05T00:18:34.332Z,26.78
2018-07-05T00:19:34.333Z,26.73
2018-07-05T00:20:34.329Z,26.78
2018-07-05T00:21:34.407Z,26.72
2018-07-05T00:22:34.370Z,26.69
2018-07-05T00:23:34.286Z,26.76
2018-07-05T00:24:34.390Z,26.71
2018-07-05T00:25:34.377Z,26.73
2018-07-05T00:26:34.246Z,26.69
2018-07-05T00:27:34.234Z,26.69
2018-07-05T00:28:34.240Z,26.71
2018-07-05T00:29:34.242Z,26.81
2018-07-05T00:30:34.217Z,26.73
2018-07-05T00:31:34.204Z,26.69
2018-07-05T00:32:34.293Z,26.72
2018-07-05T00:33:34.171Z,26.69
2018-07-05T00:34:34.182Z,26.75
2018-07-05T00:35:34.159Z,26.72
2018-07-05T00:36:34.269Z,26.75
2018-07-05T00:37:34.236Z,26.75
2018-07-05T00:38:34.180Z,26.69
2018-07-05T00:39:34.112Z,26.69
2018-07-05T00:40:34.230Z,26.75
2018-07-05T00:41:34.180Z,26.73
2018-07-05T00:42:34.106Z,26.69
2018-07-05T00:43:34.169Z,26.69
2018-07-05T00:44:34.055Z,26.69
2018-07-05T00:45:34.079Z,26.66
2018-07-05T00:46:34.034Z,26.65
2018-07-05T00:47:34.035Z,26.61
2018-07-05T00:48:34.036Z,26.71
2018-07-05T00:49:34.127Z,26.65
2018-07-05T00:50:34.122Z,26.69
2018-07-05T00:51:33.991Z,26.59
2018-07-05T00:52:34.085Z,26.65
2018-07-05T00:53:33.962Z,26.69
2018-07-05T00:54:33.949Z,26.64
2018-07-05T00:55:34.057Z,26.68
2018-07-05T00:56:33.930Z,26.64
2018-07-05T00:57:34.049Z,26.65
2018-07-05T00:58:34.016Z,26.65
2018-07-05T00:59:33.896Z,26.68
2018-07-05T01:00:34.007Z,26.66
2018-07-05T01:01:33.887Z,26.64
2018-07-05T01:02:33.871Z,26.59
2018-07-05T01:03:33.858Z,26.60
2018-07-05T01:04:33.845Z,26.66
2018-07-05T01:05:33.860Z,26.61
2018-07-05T01:06:33.823Z,26.61
2018-07-05T01:07:33.946Z,26.65
2018-07-05T01:08:33.801Z,26.59
2018-07-05T01:09:33.913Z,26.65
2018-07-05T01:10:33.804Z,26.56
2018-07-05T01:11:33.786Z,26.65
2018-07-05T01:12:33.798Z,26.66
2018-07-05T01:13:33.749Z,26.61
2018-07-05T01:14:33.737Z,26.59
2018-07-05T01:15:33.744Z,26.57
2018-07-05T01:16:33.717Z,26.59
2018-07-05T01:17:33.860Z,26.61
2018-07-05T01:18:33.815Z,26.53
2018-07-05T01:19:33.792Z,26.57
2018-07-05T01:20:33.777Z,26.54
2018-07-05T01:21:33.797Z,26.56
2018-07-05T01:22:33.654Z,26.59
2018-07-05T01:23:33.751Z,26.59
2018-07-05T01:24:33.633Z,26.54
2018-07-05T01:25:33.624Z,26.53
2018-07-05T01:26:33.626Z,26.50
2018-07-05T01:27:33.610Z,26.51
2018-07-05T01:28:33.591Z,26.60
2018-07-05T01:29:33.610Z,26.53
2018-07-05T01:30:33.619Z,26.53
2018-07-05T01:31:33.679Z,26.51
2018-07-05T01:32:33.546Z,26.49
2018-07-05T01:33:33.651Z,26.53
2018-07-05T01:34:33.641Z,26.54
2018-07-05T01:35:33.907Z,26.53
2018-07-05T01:36:33.510Z,26.57
2018-07-05T01:37:33.616Z,26.60
2018-07-05T01:38:33.613Z,26.49
2018-07-05T01:39:33.596Z,26.56
2018-07-05T01:40:33.484Z,26.54
2018-07-05T01:41:33.451Z,26.51
2018-07-05T01:42:33.532Z,26.54
2018-07-05T01:43:33.442Z,26.56
2018-07-05T01:44:33.528Z,26.54
2018-07-05T01:45:33.513Z,26.54
2018-07-05T01:46:33.406Z,26.57
2018-07-05T01:47:33.522Z,26.53
2018-07-05T01:48:33.462Z,26.53
2018-07-05T01:49:33.475Z,26.53
2018-07-05T01:50:33.372Z,26.50
2018-07-05T01:51:33.349Z,26.59
2018-07-05T01:52:33.363Z,26.50
2018-07-05T01:53:33.369Z,26.50
2018-07-05T01:54:33.331Z,26.50
2018-07-05T01:55:33.428Z,26.50
2018-07-05T01:56:33.299Z,26.56
2018-07-05T01:57:33.400Z,26.49
2018-07-05T01:58:33.271Z,26.49
2018-07-05T01:59:33.269Z,26.49
2018-07-05T02:00:33.263Z,26.50
2018-07-05T02:01:33.363Z,26.50
2018-07-05T02:02:33.325Z,26.53
2018-07-05T02:03:33.239Z,26.46
2018-07-05T02:04:33.221Z,26.54
2018-07-05T02:05:36.368Z,26.57
2018-07-05T02:06:33.298Z,26.53
2018-07-05T02:07:33.184Z,26.53
2018-07-05T02:08:33.288Z,26.51
2018-07-05T02:09:33.258Z,26.51
2018-07-05T02:10:33.157Z,26.57
2018-07-05T02:11:33.156Z,26.49
2018-07-05T02:12:33.155Z,26.54
2018-07-05T02:13:33.152Z,26.53
2018-07-05T02:14:33.282Z,26.54
2018-07-05T02:15:33.195Z,26.53
2018-07-05T02:16:33.085Z,26.47
2018-07-05T02:17:33.073Z,26.51
2018-07-05T02:18:33.066Z,26.53
2018-07-05T02:19:33.051Z,26.56
2018-07-05T02:20:33.042Z,26.47
2018-07-05T02:21:33.055Z,26.41
2018-07-05T02:22:33.267Z,26.47
2018-07-05T02:23:33.012Z,26.34
2018-07-05T02:24:33.104Z,26.38
2018-07-05T02:25:32.992Z,26.41
2018-07-05T02:26:32.997Z,26.50
2018-07-05T02:27:32.978Z,26.54
2018-07-05T02:28:32.978Z,26.51
2018-07-05T02:29:32.944Z,26.46
2018-07-05T02:30:32.961Z,26.38
2018-07-05T02:31:33.059Z,26.56
2018-07-05T02:32:32.918Z,26.53
2018-07-05T02:33:32.900Z,26.34
2018-07-05T02:34:32.967Z,26.50
2018-07-05T02:35:32.885Z,26.46
2018-07-05T02:36:32.884Z,26.47
2018-07-05T02:37:32.989Z,26.46
2018-07-05T02:38:32.960Z,26.42
2018-07-05T02:39:32.850Z,26.50
2018-07-05T02:40:32.927Z,26.47
2018-07-05T02:41:32.830Z,26.49
2018-07-05T02:42:32.821Z,26.53
2018-07-05T02:43:32.824Z,26.47
2018-07-05T02:44:32.943Z,26.50
2018-07-05T02:45:32.932Z,26.39
2018-07-05T02:46:32.852Z,26.44
2018-07-05T02:47:32.756Z,26.44
2018-07-05T02:48:32.889Z,26.47
2018-07-05T02:49:32.739Z,26.46
2018-07-05T02:50:32.727Z,26.47
2018-07-05T02:51:32.725Z,26.46
2018-07-05T02:52:32.711Z,26.46
2018-07-05T02:53:32.808Z,26.49
2018-07-05T02:54:32.686Z,26.50
2018-07-05T02:55:32.673Z,26.50
2018-07-05T02:56:32.786Z,26.50
2018-07-05T02:57:32.649Z,26.49
2018-07-05T02:58:32.757Z,26.39
2018-07-05T02:59:32.631Z,26.46
2018-07-05T03:00:32.646Z,26.44
2018-07-05T03:01:32.636Z,26.41
2018-07-05T03:02:32.715Z,26.47
2018-07-05T03:03:32.595Z,26.46
2018-07-05T03:04:32.680Z,26.46
2018-07-05T03:05:32.576Z,26.35
2018-07-05T03:06:32.672Z,26.44
2018-07-05T03:07:32.566Z,26.44
2018-07-05T03:08:32.671Z,26.49
2018-07-05T03:09:32.531Z,26.42
2018-07-05T03:10:32.622Z,26.47
2018-07-05T03:11:32.528Z,26.44
2018-07-05T03:12:32.510Z,26.44
2018-07-05T03:13:32.638Z,26.35
2018-07-05T03:14:32.473Z,26.35
2018-07-05T03:15:32.462Z,26.44
2018-07-05T03:16:32.501Z,26.32
2018-07-05T03:17:32.570Z,26.34
2018-07-05T03:18:32.433Z,26.41
2018-07-05T03:19:32.545Z,26.44
2018-07-05T03:20:32.522Z,26.41
2018-07-05T03:21:32.410Z,26.34
2018-07-05T03:22:31.483Z,26.44
2018-07-05T03:23:32.382Z,26.41
2018-07-05T03:24:32.369Z,26.44
2018-07-05T03:25:32.379Z,26.39
2018-07-05T03:26:32.367Z,26.39
2018-07-05T03:27:32.359Z,26.35
2018-07-05T03:28:32.344Z,26.35
2018-07-05T03:29:32.416Z,26.42
2018-07-05T03:30:32.423Z,26.44
2018-07-05T03:31:32.308Z,26.39
2018-07-05T03:32:32.298Z,26.38
2018-07-05T03:33:32.287Z,26.36
2018-07-05T03:34:32.279Z,26.41
2018-07-05T03:35:32.253Z,26.42
2018-07-05T03:36:32.238Z,26.38
2018-07-05T03:37:32.250Z,26.38
2018-07-05T03:38:32.332Z,26.36
2018-07-05T03:39:32.211Z,26.41
2018-07-05T03:40:32.293Z,26.35
2018-07-05T03:41:32.187Z,26.38
2018-07-05T03:42:32.203Z,26.36
2018-07-05T03:43:32.173Z,26.39
2018-07-05T03:44:32.172Z,26.38
2018-07-05T03:45:32.152Z,26.36
2018-07-05T03:46:32.132Z,26.36
2018-07-05T03:47:32.131Z,26.35
2018-07-05T03:48:32.215Z,26.35
2018-07-05T03:49:32.107Z,26.42
2018-07-05T03:50:32.226Z,26.35
2018-07-05T03:51:32.108Z,26.32
2018-07-05T03:52:32.097Z,26.41
2018-07-05T03:53:32.064Z,26.35
2018-07-05T03:54:32.118Z,26.34
2018-07-05T03:55:32.052Z,26.39
2018-07-05T03:56:32.023Z,26.38
2018-07-05T03:57:32.031Z,26.38
2018-07-05T03:58:32.018Z,26.38
2018-07-05T03:59:31.993Z,26.35
2018-07-05T04:00:32.031Z,26.36
2018-07-05T04:01:32.122Z,26.34
2018-07-05T04:02:32.008Z,26.38
2018-07-05T04:03:31.952Z,26.36
2018-07-05T04:04:31.967Z,26.36
2018-07-05T04:05:31.934Z,26.39
2018-07-05T04:06:32.115Z,26.38
2018-07-05T04:07:31.932Z,26.36
2018-07-05T04:08:31.899Z,26.36
2018-07-05T04:09:32.001Z,26.32
2018-07-05T04:10:31.873Z,26.39
2018-07-05T04:11:31.875Z,26.35
2018-07-05T04:12:31.980Z,26.36
2018-07-05T04:13:31.965Z,26.36
2018-07-05T04:14:31.840Z,26.41
2018-07-05T04:15:31.937Z,26.39
2018-07-05T04:16:31.816Z,26.34
2018-07-05T04:17:31.918Z,26.35
2018-07-05T04:18:31.893Z,26.38
2018-07-05T04:19:32.101Z,26.39
2018-07-05T04:20:31.866Z,26.46
2018-07-05T04:21:31.862Z,26.39
2018-07-05T04:22:31.754Z,26.36
2018-07-05T04:23:31.883Z,26.38
2018-07-05T04:24:31.729Z,26.35
2018-07-05T04:25:31.729Z,26.32
2018-07-05T04:26:31.862Z,26.39
2018-07-05T04:27:31.694Z,26.36
2018-07-05T04:28:31.696Z,26.36
2018-07-05T04:29:31.717Z,26.34
2018-07-05T04:30:31.776Z,26.42
2018-07-05T04:31:31.790Z,26.39
2018-07-05T04:32:32.159Z,26.34
2018-07-05T04:33:31.656Z,26.32
2018-07-05T04:34:31.629Z,26.38
2018-07-05T04:35:31.623Z,26.31
2018-07-05T04:36:31.600Z,26.39
2018-07-05T04:37:31.610Z,26.36
2018-07-05T04:38:31.606Z,26.36
2018-07-05T04:39:31.681Z,26.41
2018-07-05T04:40:31.580Z,26.36
2018-07-05T04:41:31.647Z,26.32
2018-07-05T04:42:31.936Z,26.38
2018-07-05T04:43:31.552Z,26.34
2018-07-05T04:44:31.521Z,26.46
2018-07-05T04:45:31.505Z,26.42
2018-07-05T04:46:31.604Z,26.36
2018-07-05T04:47:31.500Z,26.44
2018-07-05T04:48:31.683Z,26.35
2018-07-05T04:49:31.465Z,26.38
2018-07-05T04:50:31.464Z,26.42
2018-07-05T04:51:31.442Z,26.41
2018-07-05T04:52:31.542Z,26.35
2018-07-05T04:53:31.546Z,26.44
2018-07-05T04:54:31.427Z,26.35
2018-07-05T04:55:31.441Z,26.35
2018-07-05T04:56:31.393Z,26.32
2018-07-05T04:57:31.499Z,26.36
2018-07-05T04:58:31.383Z,26.38
2018-07-05T04:59:31.473Z,26.38
2018-07-05T05:00:31.351Z,26.34
2018-07-05T05:01:31.341Z,26.36
2018-07-05T05:02:31.499Z,26.46
2018-07-05T05:03:31.362Z,26.38
2018-07-05T05:04:31.305Z,26.42
2018-07-05T05:05:31.435Z,26.42
2018-07-05T05:06:31.412Z,26.44
2018-07-05T05:07:31.401Z,26.39
2018-07-05T05:08:31.398Z,26.38
2018-07-05T05:09:31.254Z,26.47
2018-07-05T05:10:31.252Z,26.47
2018-07-05T05:11:31.321Z,26.46
2018-07-05T05:12:31.246Z,26.44
2018-07-05T05:13:31.234Z,26.44
2018-07-05T05:14:31.304Z,26.44
2018-07-05T05:15:31.309Z,26.42
2018-07-05T05:16:31.184Z,26.47
2018-07-05T05:17:31.313Z,26.46
2018-07-05T05:18:31.290Z,26.49
2018-07-05T05:19:31.192Z,26.50
2018-07-05T05:20:31.249Z,26.44
2018-07-05T05:21:31.608Z,26.44
2018-07-05T05:22:31.222Z,26.46
2018-07-05T05:23:31.105Z,26.41
2018-07-05T05:24:31.271Z,26.46
2018-07-05T05:25:31.215Z,26.49
2018-07-05T05:26:31.075Z,26.44
2018-07-05T05:27:31.300Z,26.53
2018-07-05T05:28:31.054Z,26.50
2018-07-05T05:29:31.055Z,26.44
2018-07-05T05:30:31.162Z,26.46
2018-07-05T05:31:31.032Z,26.50
2018-07-05T05:32:31.049Z,26.44
2018-07-05T05:33:31.004Z,26.49
2018-07-05T05:34:31.123Z,26.50
2018-07-05T05:35:31.023Z,26.51
2018-07-05T05:36:32.619Z,26.50
2018-07-05T05:37:30.967Z,26.46
2018-07-05T05:38:31.076Z,26.51
2018-07-05T05:39:32.105Z,26.44
2018-07-05T05:40:30.981Z,26.51
2018-07-05T05:41:31.064Z,26.53
2018-07-05T05:42:31.086Z,26.42
2018-07-05T05:43:31.072Z,26.56
2018-07-05T05:44:31.055Z,26.36
2018-07-05T05:45:31.091Z,26.50
2018-07-05T05:46:31.009Z,26.38
2018-07-05T05:47:30.858Z,26.51
2018-07-05T05:48:30.873Z,26.51
2018-07-05T05:49:30.886Z,26.44
2018-07-05T05:50:30.956Z,26.50
2018-07-05T05:51:30.853Z,26.46
2018-07-05T05:52:30.823Z,26.53
2018-07-05T05:53:31.044Z,26.57
2018-07-05T05:54:30.829Z,26.42
2018-07-05T05:55:30.844Z,26.44
2018-07-05T05:56:30.798Z,26.53
2018-07-05T05:57:30.763Z,26.53
2018-07-05T05:58:30.907Z,26.51
2018-07-05T05:59:30.836Z,26.42
2018-07-05T06:00:30.863Z,26.53
2018-07-05T06:01:30.725Z,26.60
2018-07-05T06:02:30.838Z,26.44
2018-07-05T06:03:30.688Z,26.39
2018-07-05T06:04:30.690Z,26.47
2018-07-05T06:05:30.817Z,26.49
2018-07-05T06:06:31.426Z,26.49
2018-07-05T06:07:30.774Z,26.42
2018-07-05T06:08:30.781Z,26.53
2018-07-05T06:09:30.775Z,26.53
2018-07-05T06:10:30.645Z,26.35
2018-07-05T06:11:30.696Z,26.47
2018-07-05T06:12:33.704Z,26.57
2018-07-05T06:13:31.508Z,26.54
2018-07-05T06:14:30.691Z,26.49
2018-07-05T06:15:30.683Z,26.47
2018-07-05T06:16:31.081Z,26.51
2018-07-05T06:17:30.662Z,26.50
2018-07-05T06:18:30.688Z,26.57
2018-07-05T06:19:30.540Z,26.56
2018-07-05T06:20:30.630Z,26.53
2018-07-05T06:21:30.696Z,26.46
2018-07-05T06:22:30.629Z,26.47
2018-07-05T06:23:30.619Z,26.50
2018-07-05T06:24:30.461Z,26.51
2018-07-05T06:25:31.418Z,26.49
2018-07-05T06:26:30.517Z,26.54
2018-07-05T06:27:30.536Z,26.54
2018-07-05T06:28:30.421Z,26.56
2018-07-05T06:29:30.541Z,26.49
2018-07-05T06:30:30.684Z,26.54
2018-07-05T06:31:30.507Z,26.57
2018-07-05T06:32:30.510Z,26.60
2018-07-05T06:33:30.381Z,26.47
2018-07-05T06:34:30.481Z,26.51
2018-07-05T06:35:30.471Z,26.53
2018-07-05T06:36:30.466Z,26.64
2018-07-05T06:37:30.338Z,26.59
2018-07-05T06:38:30.452Z,26.57
2018-07-05T06:39:30.491Z,26.54
2018-07-05T06:40:30.419Z,26.64
2018-07-05T06:41:30.602Z,26.60
2018-07-05T06:42:30.415Z,26.59
2018-07-05T06:43:30.422Z,26.54
2018-07-05T06:44:30.269Z,26.60
2018-07-05T06:45:30.254Z,26.61
2018-07-05T06:46:30.364Z,26.53
2018-07-05T06:47:30.396Z,26.60
2018-07-05T06:48:30.282Z,26.50
2018-07-05T06:49:30.325Z,26.60
2018-07-05T06:50:30.703Z,26.59
2018-07-05T06:51:30.243Z,26.57
2018-07-05T06:52:30.332Z,26.60
2018-07-05T06:53:30.184Z,26.69
2018-07-05T06:54:30.259Z,26.65
2018-07-05T06:55:30.245Z,26.65
2018-07-05T06:56:30.329Z,26.60
2018-07-05T06:57:30.241Z,26.64
2018-07-05T06:58:30.609Z,26.66
2018-07-05T06:59:30.225Z,26.69
2018-07-05T07:00:30.209Z,26.69
2018-07-05T07:01:30.091Z,26.65
2018-07-05T07:02:30.207Z,26.71
2018-07-05T07:03:30.171Z,26.72
2018-07-05T07:04:30.229Z,26.65
2018-07-05T07:05:30.205Z,26.72
2018-07-05T07:06:30.165Z,26.75
2018-07-05T07:07:30.146Z,26.66
2018-07-05T07:08:30.155Z,26.72
2018-07-05T07:09:30.140Z,26.71
2018-07-05T07:10:30.098Z,26.66
2018-07-05T07:11:30.111Z,26.72
2018-07-05T07:12:30.146Z,26.71
2018-07-05T07:13:29.968Z,26.69
2018-07-05T07:14:30.094Z,26.76
2018-07-05T07:15:30.055Z,26.65
2018-07-05T07:16:30.070Z,26.69
2018-07-05T07:17:30.112Z,26.71
2018-07-05T07:18:30.079Z,26.78
2018-07-05T07:19:29.892Z,26.73
2018-07-05T07:20:29.968Z,26.76
2018-07-05T07:21:30.056Z,26.76
2018-07-05T07:22:29.984Z,26.76
2018-07-05T07:23:29.933Z,26.76
2018-07-05T07:24:29.851Z,26.81
2018-07-05T07:25:29.946Z,26.79
2018-07-05T07:26:29.959Z,26.78
2018-07-05T07:27:30.120Z,26.75
2018-07-05T07:28:30.012Z,26.84
2018-07-05T07:29:29.910Z,26.84
2018-07-05T07:30:29.879Z,26.86
2018-07-05T07:34:04.726Z,26.83
2018-07-05T07:34:39.637Z,26.84
2018-07-05T07:35:39.615Z,26.81
2018-07-05T07:36:39.708Z,26.84
2018-07-05T07:37:39.696Z,26.81
2018-07-05T07:38:39.603Z,26.88
2018-07-05T07:39:39.597Z,26.91
2018-07-05T07:40:39.519Z,26.91
2018-07-05T07:41:39.574Z,26.83
2018-07-05T07:42:39.533Z,26.88
2018-07-05T07:43:39.639Z,26.78
2018-07-05T07:44:39.707Z,26.94
2018-07-05T07:45:39.536Z,26.88
2018-07-05T07:46:39.525Z,26.93
2018-07-05T07:47:39.552Z,26.98
2018-07-05T07:48:39.471Z,26.86
2018-07-05T07:49:39.486Z,26.90
2018-07-05T07:50:39.454Z,26.88
2018-07-05T07:51:39.456Z,26.97
2018-07-05T07:52:39.416Z,26.98
2018-07-05T07:53:39.410Z,26.97
2018-07-05T07:54:39.415Z,26.97
2018-07-05T07:55:40.527Z,26.98
2018-07-05T07:56:39.419Z,27.03
2018-07-05T07:57:39.367Z,27.02
2018-07-05T07:58:39.372Z,26.97
2018-07-05T07:59:39.388Z,27.03
2018-07-05T08:00:39.381Z,27.06
2018-07-05T08:01:39.225Z,27.08
2018-07-05T08:02:39.332Z,27.03
2018-07-05T08:03:39.322Z,27.05
2018-07-05T08:04:39.300Z,27.01
2018-07-05T08:05:39.306Z,27.13
2018-07-05T08:06:39.296Z,27.05
2018-07-05T08:07:39.156Z,27.02
2018-07-05T08:08:39.295Z,27.13
2018-07-05T08:09:39.144Z,27.13
2018-07-05T08:10:39.267Z,27.15
2018-07-05T08:11:39.220Z,27.16
2018-07-05T08:12:39.258Z,27.12
2018-07-05T08:13:39.217Z,27.12
2018-07-05T08:14:39.174Z,27.08
2018-07-05T08:15:39.168Z,27.11
2018-07-05T08:16:39.160Z,27.12
2018-07-05T08:17:39.160Z,27.11
2018-07-05T08:18:39.168Z,27.11
2018-07-05T08:19:39.153Z,27.21
2018-07-05T08:20:39.170Z,27.20
2018-07-05T08:21:39.111Z,27.24
2018-07-05T08:22:39.132Z,27.18
2018-07-05T08:23:39.095Z,27.23
2018-07-05T08:24:39.134Z,27.21
2018-07-05T08:25:39.114Z,27.25
2018-07-05T08:26:39.171Z,27.25
2018-07-05T08:27:39.087Z,27.25
2018-07-05T08:28:39.075Z,27.24
2018-07-05T08:29:39.042Z,27.24
2018-07-05T08:30:39.107Z,27.27
2018-07-05T08:31:39.043Z,27.27
2018-07-05T08:32:38.916Z,27.24
2018-07-05T08:33:38.985Z,27.28
2018-07-05T08:34:40.006Z,27.30
2018-07-05T08:35:38.988Z,27.30
2018-07-05T08:36:38.969Z,27.30
2018-07-05T08:37:38.961Z,27.31
2018-07-05T08:38:38.963Z,27.28
2018-07-05T08:39:38.959Z,27.28
2018-07-05T08:40:38.941Z,27.33
2018-07-05T08:41:38.915Z,27.31
2018-07-05T08:42:38.906Z,27.28
2018-07-05T08:43:38.869Z,27.34
2018-07-05T08:44:38.779Z,27.31
2018-07-05T08:45:38.880Z,27.38
2018-07-05T08:46:38.900Z,27.39
2018-07-05T08:47:38.867Z,27.40
2018-07-05T08:48:38.787Z,27.40
2018-07-05T08:49:38.908Z,27.31
2018-07-05T08:50:38.825Z,27.34
2018-07-05T08:51:38.741Z,27.42
2018-07-05T08:52:38.784Z,27.39
2018-07-05T08:53:38.770Z,27.33
2018-07-05T08:54:38.747Z,27.42
2018-07-05T08:55:38.716Z,27.35
2018-07-05T08:56:38.806Z,27.38
2018-07-05T08:57:38.764Z,27.42
2018-07-05T08:58:38.737Z,27.42
2018-07-05T08:59:38.763Z,27.50
2018-07-05T09:00:38.773Z,27.39
2018-07-05T09:01:38.747Z,27.40
2018-07-05T09:02:38.672Z,27.45
2018-07-05T09:03:38.575Z,27.46
2018-07-05T09:04:37.698Z,27.38
2018-07-05T09:05:38.707Z,27.39
2018-07-05T09:06:38.652Z,27.40
2018-07-05T09:07:38.639Z,27.45
2018-07-05T09:08:38.666Z,27.40
2018-07-05T09:09:38.606Z,27.38
2018-07-05T09:10:38.685Z,27.49
2018-07-05T09:11:38.600Z,27.50
2018-07-05T09:12:38.492Z,27.46
2018-07-05T09:13:38.474Z,27.49
2018-07-05T09:14:38.464Z,27.45
2018-07-05T09:15:38.587Z,27.52
2018-07-05T09:16:38.439Z,27.50
2018-07-05T09:17:38.652Z,27.61
2018-07-05T09:18:38.544Z,27.46
2018-07-05T09:19:38.544Z,27.58
2018-07-05T09:20:38.543Z,27.55
2018-07-05T09:21:38.503Z,27.61
2018-07-05T09:22:38.386Z,27.55
2018-07-05T09:23:38.485Z,27.55
2018-07-05T09:24:38.461Z,27.61
2018-07-05T09:25:38.459Z,27.61
2018-07-05T09:26:38.461Z,27.65
2018-07-05T09:27:38.332Z,27.63
2018-07-05T09:28:38.357Z,27.61
2018-07-05T09:29:38.340Z,27.58
2018-07-05T09:30:38.351Z,27.59
2018-07-05T09:31:37.521Z,27.59
2018-07-05T09:32:38.399Z,27.65
2018-07-05T09:33:38.362Z,27.65
2018-07-05T09:34:38.254Z,27.69
2018-07-05T09:35:38.385Z,27.66
2018-07-05T09:36:38.266Z,27.68
2018-07-05T09:37:38.395Z,27.71
2018-07-05T09:38:38.211Z,27.69
2018-07-05T09:39:38.206Z,27.61
2018-07-05T09:40:38.338Z,27.65
2018-07-05T09:41:38.335Z,27.62
2018-07-05T09:42:38.167Z,27.74
2018-07-05T09:43:38.168Z,27.71
2018-07-05T09:44:38.294Z,27.69
2018-07-05T09:45:38.285Z,27.68
2018-07-05T09:46:38.250Z,27.71
2018-07-05T09:47:38.364Z,27.66
2018-07-05T09:48:38.229Z,27.76
2018-07-05T09:49:38.222Z,27.77
2018-07-05T09:50:38.092Z,27.71
2018-07-05T09:51:38.182Z,27.62
2018-07-05T09:52:38.338Z,27.72
2018-07-05T09:53:38.120Z,27.71
2018-07-05T09:54:38.163Z,27.77
2018-07-05T09:55:38.029Z,27.71
2018-07-05T09:56:38.157Z,27.80
2018-07-05T09:57:38.014Z,27.74
2018-07-05T09:58:38.122Z,27.77
2018-07-05T09:59:38.117Z,27.74
2018-07-05T10:00:38.018Z,27.77
2018-07-05T10:01:38.154Z,27.74
2018-07-05T10:02:38.107Z,27.87
2018-07-05T10:03:38.095Z,27.78
2018-07-05T10:04:38.071Z,27.81
2018-07-05T10:05:38.124Z,27.78
2018-07-05T10:06:38.029Z,27.77
2018-07-05T10:07:38.231Z,27.87
2018-07-05T10:08:38.069Z,27.81
2018-07-05T10:09:38.177Z,27.83
2018-07-05T10:10:38.000Z,27.90
2018-07-05T10:11:37.996Z,27.86
2018-07-05T10:12:37.993Z,27.80
2018-07-05T10:13:38.305Z,27.87
2018-07-05T10:14:37.992Z,27.93
2018-07-05T10:15:37.998Z,27.93
2018-07-05T10:16:37.975Z,27.87
2018-07-05T10:17:37.952Z,27.87
2018-07-05T10:18:38.135Z,27.91
2018-07-05T10:19:37.944Z,27.93
2018-07-05T10:20:37.993Z,27.88
2018-07-05T10:21:37.928Z,27.96
2018-07-05T10:22:37.882Z,27.93
2018-07-05T10:23:37.835Z,28.02
2018-07-05T10:24:37.860Z,28.06
2018-07-05T10:25:36.848Z,28.02
2018-07-05T10:26:37.885Z,28.03
2018-07-05T10:27:37.890Z,28.06
2018-07-05T10:28:37.823Z,28.08
2018-07-05T10:29:37.848Z,28.09
2018-07-05T10:30:37.814Z,28.08
2018-07-05T10:31:37.824Z,28.03
2018-07-05T10:32:37.806Z,28.02
2018-07-05T10:33:37.800Z,28.13
2018-07-05T10:34:37.805Z,28.09
2018-07-05T10:35:37.951Z,28.02
2018-07-05T10:36:37.760Z,28.09
2018-07-05T10:37:37.717Z,28.08
2018-07-05T10:38:37.761Z,28.13
2018-07-05T10:39:37.786Z,28.14
2018-07-05T10:40:37.725Z,28.09
2018-07-05T10:41:37.621Z,28.11
2018-07-05T10:42:37.573Z,28.11
2018-07-05T10:43:37.679Z,28.11
2018-07-05T10:44:37.540Z,28.11
2018-07-05T10:45:37.530Z,28.18
2018-07-05T10:46:37.553Z,28.17
2018-07-05T10:47:37.526Z,28.20
2018-07-05T10:48:37.579Z,28.18
2018-07-05T10:49:37.630Z,28.20
2018-07-05T10:50:37.626Z,28.27
2018-07-05T10:51:37.515Z,28.17
2018-07-05T10:52:37.692Z,28.23
2018-07-05T10:53:37.588Z,28.23
2018-07-05T10:54:37.541Z,28.27
2018-07-05T10:55:37.600Z,28.25
2018-07-05T10:56:37.467Z,28.28
2018-07-05T10:57:37.619Z,28.23
2018-07-05T10:58:37.407Z,28.25
2018-07-05T10:59:36.515Z,28.21
2018-07-05T11:00:37.925Z,28.23
2018-07-05T11:01:37.432Z,28.36
2018-07-05T11:02:37.512Z,28.33
2018-07-05T11:03:37.511Z,28.25
2018-07-05T11:04:37.463Z,28.36
2018-07-05T11:05:37.416Z,28.38
2018-07-05T11:06:37.352Z,28.35
2018-07-05T11:07:37.431Z,28.35
2018-07-05T11:08:37.410Z,28.39
2018-07-05T11:09:38.786Z,28.35
2018-07-05T11:10:37.306Z,28.36
2018-07-05T11:11:37.409Z,28.40
2018-07-05T11:12:37.273Z,28.40
2018-07-05T11:13:37.380Z,28.40
2018-07-05T11:14:37.463Z,28.48
2018-07-05T11:15:37.358Z,28.46
2018-07-05T11:16:37.254Z,28.46
2018-07-05T11:17:37.312Z,28.48
2018-07-05T11:18:37.425Z,28.52
2018-07-05T11:19:37.294Z,28.46
2018-07-05T11:20:37.405Z,28.46
2018-07-05T11:21:37.277Z,28.48
2018-07-05T11:22:37.212Z,28.50
2018-07-05T11:23:37.178Z,28.54
2018-07-05T11:24:37.270Z,28.54
2018-07-05T11:25:37.246Z,28.50
2018-07-05T11:26:37.214Z,28.57
2018-07-05T11:27:37.233Z,28.54
2018-07-05T11:28:37.272Z,28.61
2018-07-05T11:29:37.179Z,28.51
2018-07-05T11:30:37.203Z,28.57
2018-07-05T11:31:37.078Z,28.60
2018-07-05T11:32:37.178Z,28.55
2018-07-05T11:33:37.074Z,28.60
2018-07-05T11:34:37.181Z,28.61
2018-07-05T11:35:37.150Z,28.51
2018-07-05T11:36:37.400Z,28.50
2018-07-05T11:37:37.157Z,28.54
2018-07-05T11:38:37.265Z,28.64
2018-07-05T11:39:37.095Z,28.65
2018-07-05T11:40:37.118Z,28.64
2018-07-05T11:41:36.973Z,28.58
2018-07-05T11:42:37.182Z,28.60
2018-07-05T11:43:37.066Z,28.58
2018-07-05T11:44:37.049Z,28.65
2018-07-05T11:45:37.021Z,28.64
2018-07-05T11:46:37.024Z,28.60
2018-07-05T11:47:36.930Z,28.58
2018-07-05T11:48:36.885Z,28.61
2018-07-05T11:49:37.000Z,28.60
2018-07-05T11:50:37.043Z,28.64
2018-07-05T11:51:36.988Z,28.69
2018-07-05T11:52:36.877Z,28.65
2018-07-05T11:53:36.862Z,28.69
2018-07-05T11:54:37.152Z,28.64
2018-07-05T11:55:36.920Z,28.72
2018-07-05T11:56:36.807Z,28.69
2018-07-05T11:57:36.991Z,28.73
2018-07-05T11:58:37.032Z,28.76
2018-07-05T11:59:36.777Z,28.77
2018-07-05T12:00:36.911Z,28.80
2018-07-05T12:01:36.826Z,28.76
2018-07-05T12:02:37.187Z,28.72
2018-07-05T12:03:36.864Z,28.74
2018-07-05T12:04:38.410Z,28.82
2018-07-05T12:05:37.139Z,28.77
2018-07-05T12:06:37.845Z,28.74
2018-07-05T12:07:36.874Z,28.88
2018-07-05T12:08:36.852Z,28.82
2018-07-05T12:09:36.946Z,28.77
2018-07-05T12:10:36.794Z,28.76
2018-07-05T12:11:38.416Z,28.77
2018-07-05T12:12:36.833Z,28.74
2018-07-05T12:13:36.789Z,28.76
2018-07-05T12:14:36.784Z,28.76
2018-07-05T12:15:36.688Z,28.74
2018-07-05T12:16:36.744Z,28.79
2018-07-05T12:17:36.767Z,28.72
2018-07-05T12:18:36.580Z,28.72
2018-07-05T12:19:36.674Z,28.76
2018-07-05T12:20:36.887Z,28.76
2018-07-05T12:21:36.708Z,28.74
2018-07-05T12:22:36.739Z,28.65
2018-07-05T12:23:36.689Z,28.72
2018-07-05T12:24:36.728Z,28.70
2018-07-05T12:25:37.933Z,28.65
2018-07-05T12:26:36.509Z,28.64
2018-07-05T12:27:36.663Z,28.64
2018-07-05T12:28:36.606Z,28.67
2018-07-05T12:29:36.484Z,28.65
2018-07-05T12:30:36.719Z,28.64
2018-07-05T12:31:36.583Z,28.65
2018-07-05T12:32:36.608Z,28.65
2018-07-05T12:33:38.271Z,28.69
2018-07-05T12:34:36.660Z,28.65
2018-07-05T12:35:37.877Z,28.69
2018-07-05T12:36:36.855Z,28.64
2018-07-05T12:37:36.603Z,28.65
2018-07-05T12:38:36.501Z,28.65
2018-07-05T12:39:36.869Z,28.65
2018-07-05T12:40:46.246Z,28.60
2018-07-05T12:41:36.571Z,28.67
2018-07-05T12:42:36.469Z,28.64
2018-07-05T12:43:36.512Z,28.67
2018-07-05T12:44:36.430Z,28.62
2018-07-05T12:45:37.196Z,28.65
2018-07-05T12:46:36.296Z,28.62
2018-07-05T12:47:37.682Z,28.69
2018-07-05T12:48:36.403Z,28.69
2018-07-05T12:49:36.406Z,28.65
2018-07-05T12:50:36.338Z,28.62
2018-07-05T12:51:36.400Z,28.64
2018-07-05T12:52:36.423Z,28.61
2018-07-05T12:53:36.517Z,28.60
2018-07-05T12:54:36.993Z,28.69